Tiempo atmosférico en la estación meteorológica de Toledo, Toledo (515 m.)



Fecha
DESCASC
Temp. máxima en grados centígrados (hora)
DESCASC
Temp. mínima en grados centígrados (hora)
DESCASC
Temp. media en grados centígrados
DESCASC
Racha de viento máxima en m/sg (hora)
DESCASC
Velocidad máxima media en intervalos de 10 minutos(hora)
DESCASC
Precipitaciones diarias en mm
DESCASC
Precipitaciones de 00:00 a 06:00 en mm
DESCASC
Precipitaciones de 06:00 a 12:00 en mm
DESCASC
Precipitaciones de 12:00 a 18:00 en mm
DESCASC
Precipitaciones de 18:00 a 24:00 en mm
DESCASC
13-10-2019 27.6 (17:40) 16 (07:40) 21.8 8.33 (18:20) 5.83 (00:10) 0 0 0 0 0
12-10-2019 29.9 (16:30) 18 (08:40) 23.9 16.11 (19:50) 9.44 (19:50) 0 0 0 0 0
10-10-2019 30.2 (17:40) 13.9 (00:00) 22.1 7.22 (03:00) 4.72 (03:00) 0 0 0 0 0
09-10-2019 31.5 (17:30) 14.8 (00:00) 23.2 7.5 (18:00) 3.89 (10:40) 0 0 0 0 0
08-10-2019 32.6 (17:30) 13.7 (00:00) 23.1 6.11 (17:00) 3.61 (10:50) 0 0 0 0 0
07-10-2019 30.9 (16:30) 14.4 (00:00) 22.6 7.22 (04:50) 4.72 (04:50) 0 0 0 0 0
06-10-2019 30.5 (17:00) 13.9 (00:00) 22.2 8.06 (17:40) 3.89 (23:40) 0 0 0 0 0
05-10-2019 29.4 (16:40) 12.6 (08:30) 21 7.78 (17:10) 5 (17:10) 0 0 0 0 0
04-10-2019 30.6 (17:00) 11.7 (00:00) 21.2 7.5 (17:40) 5 (17:10) 0 0 0 0 0
03-10-2019 28.4 (18:10) 11.3 (00:00) 19.8 7.78 (17:50) 4.17 (14:40) 0 0 0 0 0
02-10-2019 26.2 (16:20) 12.7 (00:00) 19.5 8.61 (15:20) 5.28 (11:20) 0 0 0 0 0
01-10-2019 -- (--) -- (--) -- -- (--) -- (--) 0.4 0 0.4 0 0
30-09-2019 32.8 (17:20) 12.5 (00:00) 22.6 7.78 (17:50) 3.61 (15:10) 0 0 0 0 0
29-09-2019 32.1 (17:00) 12.3 (00:00) 22.2 8.89 (16:00) 5.28 (16:40) 0 0 0 0 0
28-09-2019 32.3 (17:20) 13.4 (00:00) 22.8 6.11 (16:20) 3.33 (15:30) 0 0 0 0 0
27-09-2019 31.1 (17:40) 15.6 (00:00) 23.4 10.28 (17:00) 5.83 (18:20) -- -- -- 0 0
26-09-2019 30.6 (17:40) 13.8 (00:00) 22.2 6.11 (17:20) 3.06 (17:20) -- -- -- -- --
25-09-2019 27.4 (17:50) 14.5 (00:00) 20.9 7.5 (00:50) 5.28 (00:50) -- -- -- -- --
24-09-2019 28.9 (16:50) 13.5 (00:00) 21.2 13.89 (19:00) 9.17 (18:50) -- -- -- -- --
23-09-2019 26.7 (18:10) 13.5 (00:00) 20.1 6.67 (15:50) 3.89 (15:50) -- -- -- -- --
22-09-2019 -- (--) -- (--) -- -- (--) -- (--) -- -- -- -- --
21-09-2019 -- (--) -- (--) -- -- (--) -- (--) -- 0 0 -- --
20-09-2019 28.1 (19:00) 18.6 (00:00) 23.4 9.44 (20:20) 5.83 (15:40) 0 0 0 0 0
19-09-2019 30.8 (15:50) 16.5 (00:00) 23.6 11.11 (16:00) 6.39 (16:00) 0 0 0 0 0
18-09-2019 30.6 (17:30) 14.2 (00:00) 22.4 6.11 (00:10) 3.61 (00:10) 0 0 0 0 0
17-09-2019 30.8 (16:20) 17.2 (00:00) 24 11.94 (18:10) 6.39 (18:10) 0 0 0 0 0
16-09-2019 27.6 (15:00) 17.5 (00:00) 22.6 6.11 (15:20) 3.61 (15:20) 0 0 0 0 0

Gráficas

Temp. máximas Temp. mínimas Temp. medias Precipitaciones Rachas de viento máximas Velocidades máximas media en intervalos de 10 minutos

Datos horarios

Fecha y hora oficial Temperatura (ºC) Velocidad del viento (km/h) Dirección del viento Racha (km/h) Dirección de racha Precipitación (mm) Presión (hPa) Tendencia (hPa) Humedad (%)
2019-10-15 23:00:00 12.2 5 Oeste 11 Oeste 0 961.5 1 60
2019-10-15 22:00:00 12.9 9 Oeste 18 Oeste 0 961.2 1.1 56
2019-10-15 21:00:00 14 12 Oeste 18 Noroeste 0 960.7 0.8 49
2019-10-15 20:00:00 14.9 12 Noroeste 23 Noroeste 0 960.5 0.5 45
2019-10-15 19:00:00 16.5 14 Oeste 26 Noroeste 0 960.1 -0.1 44
2019-10-15 18:00:00 18.2 15 Oeste 24 Oeste 0 959.9 -0.8 39
2019-10-15 17:00:00 18.1 14 Oeste 22 Oeste 0 960 -1.4 40
2019-10-15 16:00:00 18.3 9 Oeste 22 Oeste 0 960.2 -1.8 40
2019-10-15 15:00:00 18 8 Sudoeste 19 Oeste 0 960.7 -1.4 41
2019-10-15 14:00:00 16.4 10 Oeste 19 Oeste 0 961.4 -0.5 47
2019-10-15 13:00:00 15.2 3 Oeste 16 Oeste 0 962 0.5 55
2019-10-15 12:00:00 13.2 9 Oeste 20 Noroeste 0 962.1 1.2 64
2019-10-15 11:00:00 11.8 5 Oeste 11 Oeste 0 961.9 1.6 67
2019-10-15 10:00:00 9.6 4 Oeste 7 Sudoeste 0 961.5 1.5 75
2019-10-15 09:00:00 7.1 0 Calma 6 Noroeste 0 960.9 1.2 87
2019-10-15 08:00:00 7.1 3 Noroeste 6 Oeste 0 960.3 0.7 85
2019-10-15 07:00:00 7.5 4 Noroeste 9 Noroeste 0 960 0.5 86
2019-10-15 06:00:00 7.6 4 Noroeste 6 Sudoeste 0 959.7 0.4 90
2019-10-15 05:00:00 8.5 3 Oeste 9 Oeste 0 959.6 0.7 86
2019-10-15 04:00:00 9.3 5 Oeste 20 Oeste 0 959.5 1 86
2019-10-15 03:00:00 9.7 3 Sudoeste 16 Oeste 0 959.3 1.4 90
2019-10-15 02:00:00 9.6 5 Noroeste 8 Noroeste 0 958.9 1.3 91
2019-10-15 01:00:00 10.3 4 Noroeste 15 Oeste 0 958.5 1.5 88
2019-10-15 00:00:00 10.2 9 Noroeste 13 Noroeste 0 957.9 1.4 91
2019-10-14 23:00:00 10.5 4 Noroeste 10 Sudoeste 0 957.6 2 90
2019-10-14 22:00:00 11.4 9 Oeste 21 Oeste 0 957 1 85
2019-10-14 21:00:00 11.6 14 Oeste 23 Oeste 0 956.5 1.1 83
2019-10-14 20:00:00 11.7 13 Oeste 38 Oeste 0 955.6 2.5 89
2019-10-14 19:00:00 11.9 23 Oeste 44 Oeste 0 956 3.5 93
2019-10-14 18:00:00 12.7 36 Oeste 69 Oeste 0 955.4 2.7 83
2019-10-14 17:00:00 21.1 29 Oeste 44 Oeste 0 953.1 -0.5 37
2019-10-14 16:00:00 21.6 21 Oeste 48 Oeste 0 952.5 -1.5 33
2019-10-14 15:00:00 21.6 30 Sudoeste 51 Oeste 0 952.7 -1.2 34
2019-10-14 14:00:00 20.1 22 Oeste 46 Oeste 0 953.6 0 53
2019-10-14 13:00:00 20.8 28 Oeste 51 Sudoeste 0 954 0.9 48
2019-10-14 12:00:00 18.7 26 Oeste 43 Sudoeste 0 953.9 1.7 66
2019-10-14 11:00:00 20.1 33 Sudoeste 57 Oeste 0 953.6 2 55
2019-10-14 10:00:00 19.7 21 Sudoeste 34 Oeste 0 953.1 2.4 59
2019-10-14 09:00:00 19.3 25 Oeste 41 Oeste 0 952.2 1.9 60
2019-10-14 08:00:00 20.1 15 Sudoeste 42 Oeste 0 951.6 1.1 59
2019-10-14 07:00:00 20.4 9 Sudoeste 20 Sudoeste 0 950.7 0 47
2019-10-14 06:00:00 20.8 10 Sur 19 Sudoeste 0 950.3 -1 46
2019-10-14 05:00:00 18.4 4 Sudoeste 17 Sudoeste 0 950.5 -1.3 57
2019-10-14 04:00:00 18.8 5 Sur 14 Sudeste 0 950.7 -2.1 56
2019-10-14 03:00:00 18.9 10 Este 19 Este 0 951.3 -1.8 54
2019-10-14 02:00:00 19 10 Sudeste 17 Sudeste 0 951.8 -2 54
2019-10-14 01:00:00 19.2 6 Este 17 Este 0 952.8 -1.1 57
2019-10-14 00:00:00 19.4 12 Este 15 Este 0 953.1 -1 58
2019-10-13 23:00:00 19.2 9 Este 13 Este 0 953.8 0 66
2019-10-13 22:00:00 19.8 8 Este 9 Este 0 953.9 0 67
2019-10-13 21:00:00 21.4 0 Calma 13 Nordeste 0 954.1 0.1 58
2019-10-13 20:00:00 23.2 9 Nordeste 14 Noroeste 0 953.8 -0.6 50
2019-10-13 19:00:00 26.5 10 Oeste 30 Oeste 0 953.9 -1 32
2019-10-13 18:00:00 26.9 7 Noroeste 25 Oeste 0 954 -1.6 40
2019-10-13 17:00:00 27.4 12 Sur 22 Sur 0 954.4 -2.1 34
2019-10-13 16:00:00 26 7 Oeste 17 Oeste 0 954.9 -2.2 43
2019-10-13 15:00:00 25.4 5 Sudeste 15 Oeste 0 955.6 -1.9 45
2019-10-13 14:00:00 23.6 4 Oeste 15 Oeste 0 956.5 -0.9 54
2019-10-13 13:00:00 22 5 Sudoeste 15 Oeste 0 957.1 0 61
2019-10-13 12:00:00 20.2 6 Noroeste 14 Noroeste 0 957.5 1.2 68
2019-10-13 11:00:00 18.6 8 Oeste 15 Oeste 0 957.4 1.8 72
2019-10-13 10:00:00 17 8 Oeste 12 Sudoeste 0 957.1 2 81
2019-10-13 09:00:00 16 7 Oeste 18 Oeste 0 956.3 1.7 83
2019-10-13 08:00:00 16.2 4 Oeste 9 Noroeste 0 955.6 1 85
2019-10-13 07:00:00 16.8 3 Sudoeste 15 Sudoeste 0 955.1 0 83
2019-10-13 06:00:00 16.7 5 Nordeste 18 Este 0 954.6 -1.2 87
2019-10-13 05:00:00 17.5 12 Este 25 Sudeste 0 954.6 -1.4 85
2019-10-13 04:00:00 18.4 14 Sudeste 27 Este 0 955.1 -1 82
2019-10-13 03:00:00 19 17 Sudeste 30 Sudeste 0 955.8 -0.1 78
2019-10-13 02:00:00 18.9 9 Este 24 Sudeste 0 956 0 69
2019-10-13 01:00:00 19.3 13 Sudeste 29 Este 0 956.1 0.3 70
2019-10-13 00:00:00 19.4 18 Este 30 Este 0 955.9 0.4 68
2019-10-12 23:00:00 19.2 22 Este -- -- -- 956 -0.2 67
2019-10-12 22:00:00 19.3 4 Nordeste 17 Este 0 955.8 1.7 71
2019-10-12 21:00:00 18.6 14 Este 30 Este 0 955.5 1.3 66
2019-10-12 20:00:00 18.9 21 Oeste 58 Oeste 0 956.2 1.4 72
2019-10-12 19:00:00 28.1 6 Sudoeste 23 Sudeste 0 954.1 -1.2 28
2019-10-12 18:00:00 28.6 12 Sudeste 25 Sudeste 0 954.2 -1.8 30
2019-10-12 17:00:00 29.6 16 Sudeste 26 Sur 0 954.8 -2.1 30
2019-10-12 16:00:00 29 14 Sur 26 Este 0 955.3 -2 29
2019-10-12 15:00:00 26.9 16 Este 24 Este 0 956 -1.7 39
2019-10-12 14:00:00 26.3 13 Sudeste 21 Sudeste 0 956.9 -0.4 38
2019-10-12 13:00:00 25 10 Este 18 Sudeste 0 957.3 0.4 45
2019-10-12 12:00:00 22.3 4 Sur 12 Este 0 957.7 0.9 56
2019-10-12 11:00:00 20.7 5 Este 22 Este 0 957.3 0.6 61
2019-10-12 10:00:00 18.7 15 Este 21 Este 0 956.9 -0.1 68
2019-10-12 09:00:00 18 8 Este 14 Este 0 956.8 0.5 65
2019-10-12 08:00:00 18.3 9 Este 13 Este 0 956.7 0.4 65
2019-10-12 07:00:00 19.1 4 Norte 15 Sudeste 0 957 0.5 61
2019-10-12 06:00:00 19.7 8 Nordeste 14 Sudeste 0 956.3 -0.8 56
2019-10-12 05:00:00 21.2 5 Nordeste 13 Este 0 956.3 -1 46
2019-10-12 04:00:00 21.8 12 Este 14 Este 0 956.5 -1 44
2019-10-12 03:00:00 22.5 4 Sudoeste 7 Oeste 0 957.1 -0.4 42
2019-10-12 02:00:00 22.4 4 Sudeste 6 Sudeste 0 957.3 0.1 45
2019-10-12 01:00:00 23.3 3 Oeste 7 Sudoeste 0 957.5 0.5 44
2019-10-12 00:00:00 24 5 Sudoeste 13 Sudoeste 0 957.5 0.8 43
2019-10-11 23:00:00 24.6 5 Oeste 11 Sur 0 957.2 0.6 43
2019-10-11 22:00:00 25.3 7 Sur 12 Sur 0 957 0.3 41
2019-10-11 21:00:00 26.1 2 Sur 10 Este 0 956.7 -0.1 43
2019-10-11 20:00:00 26.7 6 Este 17 Este 0 956.6 -0.5 42
2019-10-11 19:00:00 27.6 8 Este 15 Este 0 956.7 -0.8 42
2019-10-11 18:00:00 28.3 8 Este 19 Este 0 956.8 -1.7 41
2019-10-11 17:00:00 30 5 Sur 15 Este 0 957.1 -2.6 37
2019-10-11 16:00:00 29.1 6 Este 17 Sudeste 0 957.5 -3.1 39
2019-10-11 15:00:00 28.6 6 Este 19 Este 0 958.5 -2.4 40
2019-10-11 14:00:00 26.9 9 Este 23 Este 0 959.7 -1.5 46
2019-10-11 13:00:00 24.5 13 Este 25 Sudeste 0 960.6 -0.2 55
2019-10-11 12:00:00 22.5 17 Este 29 Este 0 960.9 0.9 63
2019-10-11 11:00:00 20.2 15 Este 29 Este 0 961.2 1.5 71
2019-10-11 10:00:00 18.6 18 Este 31 Este 0 960.8 1.4 78
2019-10-11 09:00:00 17 15 Este 26 Este 0 960 0.7 86
2019-10-11 08:00:00 16.7 14 Este 28 Este 0 959.7 0.6 86
2019-10-11 07:00:00 17.1 17 Este 29 Este 0 959.4 0.3 85
2019-10-11 06:00:00 17.3 18 Este 30 Este 0 959.3 0 83
2019-10-11 05:00:00 17.9 18 Este 30 Este 0 959.1 -0.2 80
2019-10-11 04:00:00 18.6 18 Este 34 Este 0 959.1 -0.4 77
2019-10-11 03:00:00 19.3 20 Este 29 Este 0 959.3 -0.2 73
2019-10-11 02:00:00 20.3 18 Este 27 Este 0 959.3 0.2 67
2019-10-11 01:00:00 21.4 14 Este 24 Este 0 959.5 0.7 62
2019-10-11 00:00:00 22.4 14 Este 19 Este 0 959.5 1.3 58
2019-10-10 23:00:00 23 9 Este 17 Este 0 959.1 1.1 52
2019-10-10 22:00:00 23.9 11 Este 15 Este 0 958.8 1 47
2019-10-10 21:00:00 24.8 10 Norte 13 Norte 0 958.2 0.6 45
2019-10-10 20:00:00 26.1 9 Norte 14 Norte 0 958 0.1 43
2019-10-10 19:00:00 29.2 4 Norte 11 Oeste 0 957.8 -0.6 37
2019-10-10 18:00:00 29.9 8 Noroeste 14 Noroeste 0 957.6 -1.4 37
2019-10-10 17:00:00 29.6 6 Sur 15 Sur 0 957.9 -2.1 37
2019-10-10 16:00:00 28.9 6 Sur 17 Este 0 958.4 -2.2 39
2019-10-10 15:00:00 27.2 8 Sudeste 22 Este 0 959 -1.7 45
2019-10-10 14:00:00 25.1 10 Este 24 Este 0 960 -0.7 50
2019-10-10 13:00:00 23.7 11 Este 25 Sudeste 0 960.6 0.1 55
2019-10-10 12:00:00 21.9 13 Este 25 Sudeste 0 960.7 0.9 60
2019-10-10 11:00:00 19.2 14 Este 21 Este 0 960.7 1.5 61
2019-10-10 10:00:00 16.5 9 Sudeste 14 Sudeste 0 960.5 1.6 66
2019-10-10 09:00:00 15.7 7 Este 14 Sudeste 0 959.8 1.1 68
2019-10-10 08:00:00 14.6 8 Este 17 Este 0 959.2 0.8 73
2019-10-10 07:00:00 14.2 11 Este 16 Este 0 958.9 0.5 72
2019-10-10 06:00:00 14.7 6 Este 12 Este 0 958.7 0.4 68
2019-10-10 05:00:00 16.1 4 Este 9 Este 0 958.4 0.2 61
2019-10-10 04:00:00 17.4 8 Nordeste 25 Nordeste 0 958.4 0.3 57
2019-10-10 03:00:00 18.8 17 Nordeste 26 Nordeste 0 958.3 0.5 52
2019-10-10 02:00:00 19.3 4 Nordeste 9 Nordeste 0 958.2 0.8 44
2019-10-10 01:00:00 20.6 3 Norte 7 Norte 0 958.1 1.2 38
2019-10-10 00:00:00 21.7 0 Calma 7 Noroeste 0 957.8 1.7 35
2019-10-09 23:00:00 22.5 3 Oeste 13 Norte 0 957.4 1.8 37
2019-10-09 22:00:00 24.3 4 Sudoeste 13 Noroeste 0 956.9 1.8 36
2019-10-09 21:00:00 26 8 Noroeste 13 Noroeste 0 956.1 1 34
2019-10-09 20:00:00 27.6 7 Noroeste 17 Noroeste 0 955.6 0.2 31
2019-10-09 19:00:00 30.2 13 Noroeste 22 Noroeste 0 955.1 -0.8 27
2019-10-09 18:00:00 31.3 8 Noroeste 27 Norte 0 955.1 -1.2 28
2019-10-09 17:00:00 31.3 6 Norte 22 Noroeste 0 955.4 -1.7 30
2019-10-09 16:00:00 30.9 7 Noroeste 17 Noroeste 0 955.9 -1.7 31
2019-10-09 15:00:00 29.6 5 Sudoeste 16 Norte 0 956.3 -1.7 34
2019-10-09 14:00:00 28.3 8 Nordeste 18 Norte 0 957.1 -0.5 36
2019-10-09 13:00:00 26.5 7 Este 23 Nordeste 0 957.6 -0.2 41
2019-10-09 12:00:00 24.4 5 Nordeste 17 Este 0 958 0.4 42
2019-10-09 11:00:00 20.5 12 Este 19 Este 0 957.6 1 51
2019-10-09 10:00:00 17.9 8 Este 13 Este 0 957.8 1.4 59
2019-10-09 09:00:00 15.2 0 Calma 5 Este 0 957.6 1.2 65
2019-10-09 08:00:00 15.2 2 Norte 14 Este 0 956.6 0.6 65
2019-10-09 07:00:00 15.3 10 Este 15 Este 0 956.4 0.2 61
2019-10-09 06:00:00 17 2 Sudoeste 7 Sur 0 956.4 -0.1 55
2019-10-09 05:00:00 19.1 3 Noroeste 5 Norte 0 956 -0.8 48
2019-10-09 04:00:00 19.6 4 Noroeste 11 Este 0 956.2 -0.8 45
2019-10-09 03:00:00 20.2 5 Este 9 Este 0 956.5 -0.6 43
2019-10-09 02:00:00 21.6 0 Calma 6 Noroeste 0 956.8 0 40
2019-10-09 01:00:00 22.2 3 Oeste 8 Noroeste 0 957 0.3 38
2019-10-09 00:00:00 23.1 6 Noroeste 8 Noroeste 0 957.1 0.7 36
2019-10-08 23:00:00 23.9 3 Sur 4 Sur 0 956.8 0.7 35
2019-10-08 22:00:00 25.2 4 Sudeste 5 Sudeste 0 956.7 0.8 32
2019-10-08 21:00:00 26.9 0 Calma 7 Norte 0 956.4 0.2 29
2019-10-08 20:00:00 28.8 6 Noroeste 12 Oeste 0 956.1 -0.4 26
2019-10-08 19:00:00 32.1 5 Oeste 16 Noroeste 0 955.9 -1.3 23
2019-10-08 18:00:00 32.2 9 Noroeste 22 Oeste 0 956.2 -1.5 22
2019-10-08 17:00:00 32.3 10 Oeste 22 Noroeste 0 956.5 -2 22
2019-10-08 16:00:00 32.2 9 Oeste 21 Oeste 0 957.2 -2.1 22
2019-10-08 15:00:00 31.4 5 Sudoeste 17 Sudoeste 0 957.7 -2.3 24
2019-10-08 14:00:00 29.7 6 Sudeste 14 Sudeste 0 958.5 -1.6 28
2019-10-08 13:00:00 27 6 Sudeste 17 Este 0 959.3 -0.7 32
2019-10-08 12:00:00 24 10 Sudeste 16 Este 0 960 0.6 37
2019-10-08 11:00:00 20.9 10 Este 18 Este 0 960.1 0.8 43
2019-10-08 10:00:00 17.6 11 Este 15 Este 0 960 0.9 53
2019-10-08 09:00:00 14 3 Sur 8 Este 0 959.4 0.4 68
2019-10-08 08:00:00 14.2 5 Sudeste 10 Sudeste 0 959.3 0.3 65
2019-10-08 07:00:00 14.7 3 Sur 10 Este 0 959.1 0 62
2019-10-08 06:00:00 15 0 Calma 11 Este 0 959 -0.2 62
2019-10-08 05:00:00 16.3 5 Sudeste 12 Este 0 959 -0.2 57
2019-10-08 04:00:00 16.7 3 Sudeste 12 Sur 0 959.1 -0.4 56
2019-10-08 03:00:00 18.7 3 Sudeste 12 Nordeste 0 959.2 -0.1 48
2019-10-08 02:00:00 18.5 2 Este 13 Este 0 959.2 0.2 49
2019-10-08 01:00:00 19.4 7 Este 13 Sur 0 959.5 0.9 46
2019-10-08 00:00:00 21.5 4 Noroeste 9 Noroeste 0 959.3 1 40
2019-10-07 23:00:00 23.3 4 Nordeste 6 Este 0 959 0.8 36
2019-10-07 22:00:00 23.9 5 Este 11 Este 0 958.6 0.7 35
2019-10-07 21:00:00 24.5 8 Sudeste 13 Este 0 958.3 0.4 35
2019-10-07 20:00:00 27.1 10 Este 17 Este 0 958.2 0.1 30
2019-10-07 19:00:00 29.9 7 Este 10 Sur 0 957.9 -0.4 25
2019-10-07 18:00:00 30.4 7 Sudeste 21 Sudeste 0 957.9 -0.8 24
2019-10-07 17:00:00 30.7 10 Sudeste 17 Sudeste 0 958.1 -1.5 25
2019-10-07 16:00:00 30.2 8 Nordeste 21 Nordeste 0 958.3 -1.8 23
2019-10-07 15:00:00 28.9 10 Norte 21 Norte 0 958.7 -1.6 25
2019-10-07 14:00:00 27.9 6 Nordeste 13 Este 0 959.6 -0.8 26
2019-10-07 13:00:00 26 10 Este 19 Sudeste 0 960.1 -0.2 30
2019-10-07 12:00:00 23.8 12 Sudeste 21 Sudeste 0 960.3 0.4 37
2019-10-07 11:00:00 20.7 8 Sudeste 19 Sudeste 0 960.4 1.1 41
2019-10-07 10:00:00 18 10 Sudeste 14 Sudeste 0 960.3 1.5 46
2019-10-07 09:00:00 15 7 Sudeste 21 Este 0 959.9 1.2 55
2019-10-07 08:00:00 14.4 13 Este 17 Este 0 959.3 0.8 55
2019-10-07 07:00:00 16.5 6 Nordeste 10 Sudeste 0 958.8 -0.2 49
2019-10-07 06:00:00 17.2 7 Sudeste 19 Nordeste 0 958.7 -0.9 47
2019-10-07 05:00:00 20.6 14 Nordeste 26 Norte 0 958.5 -1.3 39
2019-10-07 04:00:00 18.8 3 Nordeste 7 Este 0 959 -0.7 43
2019-10-07 03:00:00 19.1 7 Este 10 Nordeste 0 959.6 -0.5 42
2019-10-07 02:00:00 20.3 4 Norte 11 Sur 0 959.8 -0.1 39
2019-10-07 01:00:00 20.1 4 Noroeste 13 Norte 0 959.7 0.7 40
2019-10-07 00:00:00 22 10 Norte 24 Norte 0 960.1 1.7 36
2019-10-06 23:00:00 22.1 8 Norte 21 Noroeste 0 959.9 1.8 35
2019-10-06 22:00:00 22.7 4 Sudeste 14 Oeste 0 959 1.1 35
2019-10-06 21:00:00 24.7 10 Noroeste 18 Oeste 0 958.4 0.4 31
2019-10-06 20:00:00 26.8 11 Noroeste 17 Oeste 0 958.1 -0.2 26
2019-10-06 19:00:00 29.3 11 Oeste 22 Oeste 0 957.9 -0.6 22
2019-10-06 18:00:00 30.1 11 Noroeste 29 Oeste 0 958 -1 21
2019-10-06 17:00:00 30.3 13 Noroeste 23 Oeste 0 958.3 -1.5 21
2019-10-06 16:00:00 29.9 10 Oeste 19 Noroeste 0 958.5 -1.7 22
2019-10-06 15:00:00 28.7 6 Oeste 18 Oeste 0 959 -1.3 25
2019-10-06 14:00:00 26.9 5 Oeste 15 Norte 0 959.8 -0.7 29
2019-10-06 13:00:00 26 6 Sudoeste 13 Sudeste 0 960.2 -0.1 34
2019-10-06 12:00:00 22.5 8 Sudeste 14 Sudeste 0 960.3 0.9 42
2019-10-06 11:00:00 20.1 7 Sudeste 12 Sur 0 960.5 1.9 47
2019-10-06 10:00:00 17 4 Sudeste 8 Este 0 960.3 1.8 58
2019-10-06 09:00:00 14.4 2 Sudoeste 5 Este 0 959.4 1.3 65
2019-10-06 08:00:00 14.7 3 Sudeste 10 Este 0 958.6 0.6 66
2019-10-06 07:00:00 15.7 4 Sudoeste 6 Sudoeste 0 958.5 0.6 63
2019-10-06 06:00:00 16.3 3 Norte 5 Nordeste 0 958.1 -0.2 61
2019-10-06 05:00:00 17.1 3 Sur 9 Norte 0 958 -0.4 59
2019-10-06 04:00:00 18.1 2 Sur 4 Sur 0 957.9 -0.3 56
2019-10-06 03:00:00 18.6 4 Norte 5 Sur 0 958.3 0.3 53
2019-10-06 02:00:00 19.2 5 Oeste 12 Noroeste 0 958.4 0.7 52
2019-10-06 01:00:00 20 6 Noroeste 8 Noroeste 0 958.2 1 50
2019-10-06 00:00:00 20.7 0 Calma 9 Oeste 0 958 1.4 48
2019-10-05 23:00:00 22 5 Oeste 15 Oeste 0 957.7 1.4 44
2019-10-05 22:00:00 23.1 10 Oeste 19 Oeste 0 957.2 1.4 40
2019-10-05 21:00:00 24.3 11 Oeste 22 Oeste 0 956.6 0.9 36
2019-10-05 20:00:00 26.1 11 Noroeste 24 Oeste 0 956.3 0.6 33
2019-10-05 19:00:00 28.7 16 Noroeste 24 Oeste 0 955.8 -0.2 27
2019-10-05 18:00:00 29.3 15 Oeste 28 Oeste 0 955.7 -0.8 30
2019-10-05 17:00:00 29.2 15 Oeste 28 Noroeste 0 955.7 -1.5 28
2019-10-05 16:00:00 28.6 15 Noroeste 25 Oeste 0 956 -1.5 31
2019-10-05 15:00:00 27.8 10 Oeste 24 Noroeste 0 956.5 -1.2 33
2019-10-05 14:00:00 27.4 9 Sudoeste 17 Sudoeste 0 957.2 -0.6 36
2019-10-05 13:00:00 25.8 4 Oeste 12 Oeste 0 957.5 -0.1 37
2019-10-05 12:00:00 23.5 4 Este 10 Sur 0 957.7 0.5 40
2019-10-05 11:00:00 20.2 5 Sudeste 10 Sudeste 0 957.8 1.3 46
2019-10-05 10:00:00 16.7 4 Sur 6 Sudeste 0 957.6 1.5 55
2019-10-05 09:00:00 13.1 2 Este 6 Este 0 957.2 1 69
2019-10-05 08:00:00 13.8 0 Calma 6 Sudeste 0 956.5 0.1 67
2019-10-05 07:00:00 15.2 0 Calma 6 Sur 0 956.1 -0.2 62
2019-10-05 06:00:00 15.9 2 Sur 4 Oeste 0 956.2 -0.3 59
2019-10-05 05:00:00 17.2 4 Oeste 9 Noroeste 0 956.4 0 54
2019-10-05 04:00:00 17.6 4 Noroeste 5 Noroeste 0 956.3 -0.3 53
2019-10-05 03:00:00 18.2 4 Oeste 5 Oeste 0 956.5 -0.1 51
2019-10-05 02:00:00 18.9 4 Noroeste 7 Noroeste 0 956.4 -0.1 49
2019-10-05 01:00:00 19.3 5 Noroeste 10 Noroeste 0 956.6 0.4 48
2019-10-05 00:00:00 20.5 5 Noroeste 7 Noroeste 0 956.6 0.7 45
2019-10-04 23:00:00 21.5 2 Noroeste 14 Oeste 0 956.5 1.1 41
2019-10-04 22:00:00 23 12 Oeste 19 Noroeste 0 956.2 1.1 36
2019-10-04 21:00:00 24.3 12 Oeste 18 Noroeste 0 955.9 0.5 31
2019-10-04 20:00:00 26.5 11 Oeste 17 Noroeste 0 955.4 -0.2 27
2019-10-04 19:00:00 29 12 Oeste 24 Noroeste 0 955.1 -1 23
2019-10-04 18:00:00 30 15 Oeste 27 Oeste 0 955.4 -1.3 23
2019-10-04 17:00:00 30.6 10 Oeste 25 Noroeste 0 955.6 -2.1 20
2019-10-04 16:00:00 29.8 9 Oeste 24 Noroeste 0 956.1 -2.2 22
2019-10-04 15:00:00 29.5 10 Sudoeste 18 Oeste 0 956.7 -2.3 23
2019-10-04 14:00:00 27.9 9 Sudeste 17 Oeste 0 957.7 -1.5 25
2019-10-04 13:00:00 25.7 6 Sudeste 13 Sudeste 0 958.3 -1 29
2019-10-04 12:00:00 21.7 8 Sudeste 16 Sudeste 0 959 0.2 37
2019-10-04 11:00:00 18.1 9 Sudeste 17 Sudeste 0 959.2 0.8 45
2019-10-04 10:00:00 15.2 8 Sudeste 12 Sudeste 0 959.3 0.9 53
2019-10-04 09:00:00 12.1 6 Este 10 Este 0 958.8 0.4 62
2019-10-04 08:00:00 12.3 2 Sudeste 6 Este 0 958.4 0.2 59
2019-10-04 07:00:00 12.6 4 Este 13 Este 0 958.4 0.1 57
2019-10-04 06:00:00 14 8 Este 13 Este 0 958.4 -0.2 55
2019-10-04 05:00:00 16.3 3 Sudoeste 12 Norte 0 958.2 -0.5 48
2019-10-04 04:00:00 16.2 3 Oeste 7 Norte 0 958.3 -0.4 47
2019-10-04 03:00:00 17.5 4 Noroeste 9 Oeste 0 958.6 -0.2 42
2019-10-04 02:00:00 18.6 3 Noroeste 8 Norte 0 958.7 0.2 40
2019-10-04 01:00:00 18.4 6 Noroeste 8 Noroeste 0 958.7 0.3 40
2019-10-04 00:00:00 19.3 4 Noroeste 6 Oeste 0 958.8 0.6 37
2019-10-03 23:00:00 20.2 8 Oeste 11 Noroeste 0 958.5 0.6 35
2019-10-03 22:00:00 21.3 4 Sudoeste 14 Oeste 0 958.4 0.9 34
2019-10-03 21:00:00 22.8 9 Noroeste 18 Oeste 0 958.2 0.7 30
2019-10-03 20:00:00 24.9 13 Oeste 22 Oeste 0 957.9 0 24
2019-10-03 19:00:00 27.5 13 Oeste 22 Oeste 0 957.5 -0.8 23
2019-10-03 18:00:00 28.3 14 Oeste 28 Oeste 0 957.5 -1.2 22
2019-10-03 17:00:00 27.9 14 Oeste 26 Oeste 0 957.9 -1.4 22
2019-10-03 16:00:00 27.1 13 Oeste 28 Oeste 0 958.3 -1.5 24
2019-10-03 15:00:00 26.1 14 Oeste 26 Oeste 0 958.7 -1.8 26
2019-10-03 14:00:00 25 9 Noroeste 22 Noroeste 0 959.3 -1.1 28
2019-10-03 13:00:00 23.3 6 Noroeste 14 Sudeste 0 959.8 -0.4 32
2019-10-03 12:00:00 20.7 7 Este 14 Sudeste 0 960.5 0.7 42
2019-10-03 11:00:00 17.5 6 Sudeste 13 Sudeste 0 960.4 1 50
2019-10-03 10:00:00 14.8 5 Sudeste 10 Este 0 960.2 0.9 56
2019-10-03 09:00:00 11.7 3 Este 6 Este 0 959.8 0.6 63
2019-10-03 08:00:00 11.9 5 Nordeste 9 Este 0 959.4 0.4 62
2019-10-03 07:00:00 11.4 6 Este 10 Este 0 959.3 0.1 62
2019-10-03 06:00:00 12.8 3 Sur 5 Sudoeste 0 959.2 -0.4 59
2019-10-03 05:00:00 13.4 3 Nordeste 5 Sur 0 959 -0.5 56
2019-10-03 04:00:00 14.2 2 Nordeste 6 Este 0 959.2 -0.5 53
2019-10-03 03:00:00 15 0 Calma 6 Este 0 959.6 0 51
2019-10-03 02:00:00 15.7 2 Sur 7 Nordeste 0 959.5 0.4 49
2019-10-03 01:00:00 16.8 0 Calma 6 Sur 0 959.7 1 44
2019-10-03 00:00:00 17.7 6 Nordeste 17 Nordeste 0 959.6 1.3 41
2019-10-02 23:00:00 18.7 12 Nordeste 23 Nordeste 0 959.1 0.9 38
2019-10-02 22:00:00 19.7 17 Norte 22 Nordeste 0 958.7 1.1 35
2019-10-02 21:00:00 20.6 14 Norte 20 Norte 0 958.3 0.8 33
2019-10-02 20:00:00 22.6 11 Norte 15 Norte 0 958.2 0.6 30
2019-10-02 19:00:00 25 13 Noroeste 24 Norte 0 957.6 -0.1 26
2019-10-02 18:00:00 26.2 14 Norte 23 Norte 0 957.5 -0.4 23
2019-10-02 17:00:00 26 9 Noroeste 27 Noroeste 0 957.6 -0.7 23
2019-10-02 16:00:00 25.5 16 Nordeste 31 Norte 0 957.7 -1 21
2019-10-02 15:00:00 24.9 12 Norte 27 Norte 0 957.9 -1.1 24
2019-10-02 14:00:00 23.3 10 Nordeste 24 Nordeste 0 958.3 -0.6 31
2019-10-02 13:00:00 22 14 Norte 30 Norte 0 958.7 0.2 36
2019-10-02 12:00:00 20.7 11 Nordeste 29 Nordeste 0 959 1 39
2019-10-02 11:00:00 18.6 15 Norte 26 Nordeste 0 958.9 1.2 47
2019-10-02 10:00:00 16.4 10 Nordeste 17 Nordeste -- 958.5 1.4 55
2019-10-02 09:00:00 14.2 5 Sur 8 Sur -- 958 1.2 65
2019-10-02 08:00:00 12.9 4 Sudoeste 7 Noroeste -- 957.7 1.3 72
2019-10-02 07:00:00 13.9 5 Norte 8 Norte -- 957.1 0.3 66
2019-10-02 06:00:00 14.7 2 Sur 19 Norte -- 956.8 -0.1 66
2019-10-02 05:00:00 15.7 13 Norte 17 Norte -- 956.4 -0.4 61
2019-10-02 04:00:00 16.6 8 Norte 13 Norte -- 956.8 -0.2 55
2019-10-02 03:00:00 16.7 4 Noroeste 9 Noroeste -- 956.9 0.1 59
2019-10-02 02:00:00 17.8 4 Noroeste 10 Noroeste -- 956.8 0.3 55
2019-10-02 01:00:00 18.7 5 Norte 13 Noroeste -- 957 1.1 52
2019-10-02 00:00:00 19.7 7 Noroeste 14 Norte -- 956.8 1.6 50
2019-10-01 23:00:00 20.3 9 Noroeste 14 Norte -- 956.5 1.9 50
2019-10-01 22:00:00 21.7 12 Noroeste 29 Oeste -- 955.9 1.7 47
2019-10-01 21:00:00 23.2 14 Oeste 30 Oeste -- 955.2 1.3 44
2019-10-01 20:00:00 25.4 19 Oeste 34 Oeste -- 954.6 0.5 37
2019-10-01 19:00:00 27.7 21 Oeste 32 Oeste -- 954.2 0.2 27
2019-10-01 18:00:00 28.5 18 Noroeste 33 Noroeste -- 953.9 -0.5 27
2019-10-01 17:00:00 28.5 18 Noroeste 34 Oeste -- 954.1 -1 29
2019-10-01 16:00:00 28.6 14 Oeste 36 Oeste -- 954 -1.5 27
2019-10-01 15:00:00 27.7 21 Oeste 32 Oeste -- 954.4 -1.2 29
2019-10-01 14:00:00 26.6 23 Oeste 35 Oeste -- 955.1 -0.5 23
2019-10-01 13:00:00 25.2 23 Oeste 36 Oeste -- 955.5 -- 36
2019-10-01 12:00:00 24.2 12 Oeste 26 Oeste -- 955.6 0.9 40
2019-10-01 11:00:00 22.1 13 Oeste -- -- -- 955.6 1.1 37
2019-10-01 10:00:00 -- -- -- -- -- -- -- -- --
2019-10-01 09:00:00 15.2 2 Sur 4 Oeste -- 954.7 0.7 50
2019-10-01 08:00:00 14.9 2 Nordeste 4 Nordeste -- 954.5 0.2 48
2019-10-01 07:00:00 15.4 2 Sudoeste 4 Oeste -- 954 -0.7 46
2019-10-01 06:00:00 15.9 0 Calma 5 Este -- 954 -1.2 42
2019-10-01 05:00:00 16.6 4 Este 6 Este -- 954.3 -1 40
2019-10-01 04:00:00 18.5 3 Sudeste 10 Noroeste -- 954.7 -0.9 36
2019-10-01 03:00:00 20.6 3 Norte 8 Oeste -- 955.2 -0.5 30
2019-10-01 02:00:00 20.9 5 Oeste 8 Sudoeste -- 955.3 -0.3 30
2019-10-01 01:00:00 21.2 3 Oeste 7 Oeste -- 955.6 0 30
2019-10-01 00:00:00 22 2 Sudoeste 6 Sur -- 955.7 0.5 28
2019-09-30 23:00:00 23.5 0 Calma 3 Sudoeste -- 955.6 0.6 26
2019-09-30 22:00:00 24.4 0 Calma 10 Noroeste -- 955.6 0.7 25
2019-09-30 21:00:00 26.3 9 Noroeste 13 Noroeste -- 955.2 0.1 23
2019-09-30 20:00:00 28.8 7 Noroeste 19 Noroeste -- 955 -0.7 20
2019-09-30 19:00:00 31.7 11 Noroeste 19 Norte -- 954.9 -1.3 17
2019-09-30 18:00:00 32.3 11 Noroeste 28 Oeste -- 955.1 -1.7 16
2019-09-30 17:00:00 32.4 12 Noroeste 22 Oeste -- 955.7 -2.3 17
2019-09-30 16:00:00 32.2 6 Norte 22 Noroeste -- 956.2 -2.3 17
2019-09-30 15:00:00 31.3 7 Oeste 21 Noroeste -- 956.8 -2.2 17
2019-09-30 14:00:00 29.5 6 Sur 17 Sudeste -- 958 -1.1 22
2019-09-30 13:00:00 26.6 11 Sudeste 17 Sudeste -- 958.5 -0.5 28
2019-09-30 12:00:00 23.4 10 Sudeste 14 Sudeste -- 959 0.4 33
2019-09-30 11:00:00 20.3 8 Sudeste 13 Sudeste -- 959.1 0.8 38
2019-09-30 10:00:00 17.4 9 Sudeste 13 Este -- 959 1 43
2019-09-30 09:00:00 12.9 2 Sudeste 8 Este -- 958.6 0.7 52
2019-09-30 08:00:00 13.4 4 Sudeste 6 Sur -- 958.3 0.3 47
2019-09-30 07:00:00 14.6 0 Calma 8 Este -- 958 -0.2 41
2019-09-30 06:00:00 15.3 5 Sudeste 8 Sudeste -- 957.9 -0.5 41
2019-09-30 05:00:00 16.7 2 Sur 5 Nordeste -- 958 -0.4 38
2019-09-30 04:00:00 18 3 Este 6 Sudeste -- 958.2 -0.2 35
2019-09-30 03:00:00 19.6 3 Sudoeste 6 Sur -- 958.4 -0.2 32
2019-09-30 02:00:00 20.5 3 Noroeste 7 Noroeste -- 958.4 0 29
2019-09-30 01:00:00 21.3 5 Noroeste 9 Norte -- 958.4 0.3 26
2019-09-30 00:00:00 22.1 5 Noroeste 6 Noroeste -- 958.6 1.1 24
2019-09-29 23:00:00 23.3 2 Noroeste 7 Oeste -- 958.4 1.4 21
2019-09-29 22:00:00 24.4 7 Oeste 19 Oeste -- 958.1 1 20
2019-09-29 21:00:00 26.3 13 Oeste 19 Oeste -- 957.5 0.4 19
2019-09-29 20:00:00 28.4 12 Noroeste 23 Oeste -- 957 -0.5 19
2019-09-29 19:00:00 31.1 15 Oeste 28 Oeste -- 957.1 -0.7 17
2019-09-29 18:00:00 31.8 18 Oeste 28 Oeste -- 957.1 -1.3 17
2019-09-29 17:00:00 32 15 Oeste 31 Oeste -- 957.5 -1.8 18
2019-09-29 16:00:00 31.7 16 Oeste 32 Oeste -- 957.8 -1.9 18
2019-09-29 15:00:00 30.9 17 Oeste 28 Oeste -- 958.4 -1.5 20
2019-09-29 14:00:00 29.7 9 Oeste 15 Noroeste -- 959.3 -0.6 25
2019-09-29 13:00:00 27.1 5 Sur 12 Sudeste -- 959.7 0.4 35
2019-09-29 12:00:00 23.4 7 Sudeste 12 Sur -- 959.9 0.7 45
2019-09-29 11:00:00 20.8 4 Sudoeste 11 Este -- 959.9 1.2 50
2019-09-29 10:00:00 16.8 7 Este 11 Este -- 959.3 0.9 58
2019-09-29 09:00:00 14.3 4 Este 12 Este -- 959.2 0.7 68
2019-09-29 08:00:00 13.1 8 Sudeste 12 Sudeste -- 958.7 0.3 64
2019-09-29 07:00:00 12.5 3 Este 6 Sudeste -- 958.4 -0.3 65
2019-09-29 06:00:00 13.7 2 Sur 7 Este -- 958.5 -0.4 59
2019-09-29 05:00:00 15.1 3 Sudoeste 8 Este -- 958.4 -0.4 48
2019-09-29 04:00:00 16.2 3 Sur 6 Sudeste -- 958.7 -0.3 42
2019-09-29 03:00:00 17.8 2 Sur 9 Este -- 958.9 -0.2 38
2019-09-29 02:00:00 18.9 3 Sudeste 5 Sudeste -- 958.8 -0.1 34
2019-09-29 01:00:00 20.6 0 Calma 3 Noroeste -- 959 0.4 29
2019-09-29 00:00:00 21.6 2 Noroeste 6 Noroeste -- 959.1 0.8 28
2019-09-28 23:00:00 22.2 3 Oeste 4 Oeste -- 958.9 0.8 28
2019-09-28 22:00:00 24.4 2 Sur 6 Sudeste -- 958.6 0.5 26
2019-09-28 21:00:00 26.3 4 Sur 9 Este -- 958.3 0.1 24
2019-09-28 20:00:00 29.1 4 Nordeste 12 Noroeste -- 958.1 -0.3 19
2019-09-28 19:00:00 31.5 6 Noroeste 13 Oeste -- 958.1 -0.8 17
2019-09-28 18:00:00 32.2 5 Sudoeste 17 Sur -- 958.2 -1.1 16
2019-09-28 17:00:00 32.1 5 Noroeste 22 Norte -- 958.4 -1.9 16
2019-09-28 16:00:00 31.6 5 Noroeste 21 Oeste -- 958.9 -2.1 15
2019-09-28 15:00:00 30.4 7 Oeste 20 Noroeste -- 959.3 -2.2 18
2019-09-28 14:00:00 28.5 9 Sudeste 18 Sudeste -- 960.3 -1.1 23
2019-09-28 13:00:00 26.1 8 Sudeste 14 Sur -- 961 -0.3 30
2019-09-28 12:00:00 22.4 9 Sudeste 17 Este -- 961.5 0.8 35
2019-09-28 11:00:00 19.4 8 Sudeste 13 Sudeste -- 961.4 1.3 43
2019-09-28 10:00:00 15.9 9 Este 15 Este -- 961.3 1.5 55
2019-09-28 09:00:00 13.7 4 Sudeste 6 Sudeste -- 960.7 0.9 63
2019-09-28 08:00:00 13.8 3 Este 6 Sur -- 960.1 0.3 63
2019-09-28 07:00:00 15.5 4 Norte 5 Norte -- 959.8 0 54
2019-09-28 06:00:00 16.1 0 Calma 5 Sur -- 959.8 -0.1 49
2019-09-28 05:00:00 17.1 3 Sur 5 Norte -- 959.8 -0.2 43
2019-09-28 04:00:00 17.4 0 Calma 5 Sur -- 959.8 -0.2 45
2019-09-28 03:00:00 18.6 4 Noroeste 8 Norte -- 959.9 0.1 40
2019-09-28 02:00:00 19.9 2 Noroeste 7 Norte -- 960 0.3 31
2019-09-28 01:00:00 20.6 0 Calma 3 Norte -- 960 1 29
2019-09-28 00:00:00 21.5 0 Calma 12 Norte -- 959.8 1.6 28
2019-09-27 23:00:00 22.6 4 Noroeste 15 Oeste -- 959.7 1.8 27
2019-09-27 22:00:00 23.7 4 Sudoeste 19 Noroeste -- 959 1.3 27
2019-09-27 21:00:00 25.6 11 Oeste 21 Oeste -- 958.2 0.6 23
2019-09-27 20:00:00 27.8 12 Noroeste 26 Noroeste -- 957.9 0.2 20
2019-09-27 19:00:00 29.9 21 Noroeste 31 Oeste -- 957.7 -0.5 14
2019-09-27 18:00:00 30.9 20 Oeste 31 Oeste -- 957.6 -1.2 21
2019-09-27 17:00:00 30.7 18 Oeste 37 Oeste -- 957.7 -1.6 22
2019-09-27 16:00:00 30.6 13 Oeste 32 Oeste -- 958.2 -1.4 25
2019-09-27 15:00:00 29.6 15 Oeste 29 Noroeste -- 958.8 -1.3 25
2019-09-27 14:00:00 29 12 Oeste 27 Oeste -- 959.3 -0.7 27
2019-09-27 13:00:00 27.7 5 Noroeste 17 Norte -- 959.6 -0.1 29
2019-09-27 12:00:00 25.4 12 Norte 19 Norte -- 960.1 0.5 29
2019-09-27 11:00:00 23.2 3 Oeste 6 Sur -- 960 0.5 43
2019-09-27 10:00:00 19.7 3 Sudeste 9 Sudeste -- 959.7 0.5 --
2019-09-27 09:00:00 16.4 2 Sudeste 6 Sudeste -- 959.6 0.6 --
2019-09-27 08:00:00 15.9 0 Calma 5 Nordeste -- 959.5 0.5 --
2019-09-27 07:00:00 16.2 3 Sur 7 Sur -- 959.2 0.2 --
2019-09-27 06:00:00 17.5 0 Calma 5 Sur -- 959 -0.2 --
2019-09-27 05:00:00 17.9 0 Calma 6 Sur -- 959 -0.3 --
2019-09-27 04:00:00 19.6 0 Calma 5 Noroeste -- 959 -0.4 --
2019-09-27 03:00:00 19.9 3 Noroeste 7 Oeste -- 959.2 -0.3 --
2019-09-27 02:00:00 20.6 4 Noroeste 7 Noroeste -- 959.3 0 --
2019-09-27 01:00:00 21.4 3 Noroeste 10 Oeste -- 959.4 0.5 --
2019-09-27 00:00:00 22 6 Noroeste 10 Oeste -- 959.5 1.2 --
2019-09-26 23:00:00 23.1 3 Noroeste 5 Noroeste -- 959.3 1.4 --
2019-09-26 22:00:00 24.5 3 Noroeste 6 Oeste -- 958.9 1.2 --
2019-09-26 21:00:00 26 3 Este 5 Este -- 958.3 0.6 --
2019-09-26 20:00:00 28.8 3 Oeste 17 Noroeste -- 957.9 -0.1 --
2019-09-26 19:00:00 30 6 Norte 14 Noroeste -- 957.7 -0.7 --
2019-09-26 18:00:00 30.5 8 Oeste 22 Noroeste -- 957.7 -1.1 --
2019-09-26 17:00:00 30 8 Nordeste 19 Oeste -- 958 -1.4 --
2019-09-26 16:00:00 29.7 6 Sudeste 17 Oeste -- 958.4 -1.7 --
2019-09-26 15:00:00 28.8 5 Noroeste 15 Sudeste -- 958.8 -1.8 --
2019-09-26 14:00:00 27.9 8 Sur 15 Sudeste -- 959.4 -1.3 --
2019-09-26 13:00:00 26 7 Este 16 Sudeste -- 960.1 -0.2 --
2019-09-26 12:00:00 23.3 8 Sudeste 14 Sudeste -- 960.6 0.8 --
2019-09-26 11:00:00 20.5 8 Sudeste 12 Sudeste -- 960.7 1.4 --
2019-09-26 10:00:00 17.4 7 Sudeste 12 Sudeste -- 960.3 1.4 --
2019-09-26 09:00:00 15 2 Nordeste 8 Este -- 959.8 1.1 --
2019-09-26 08:00:00 13.9 4 Sudeste 8 Este -- 959.3 0.7 --
2019-09-26 07:00:00 14.1 4 Este 7 Este -- 958.9 0.3 --
2019-09-26 06:00:00 15.4 0 Calma 5 Sudeste -- 958.7 0 --
2019-09-26 05:00:00 16.2 2 Sudoeste 5 Oeste -- 958.6 -0.2 --
2019-09-26 04:00:00 17.3 4 Noroeste 7 Noroeste -- 958.6 -0.2 --
2019-09-26 03:00:00 17.6 3 Noroeste 4 Noroeste -- 958.7 0 --
2019-09-26 02:00:00 18.2 0 Calma 5 Oeste -- 958.8 0.5 --
2019-09-26 01:00:00 19.1 2 Sudoeste 4 Oeste -- 958.8 0.7 --
2019-09-26 00:00:00 19.8 2 Norte 4 Sur -- 958.7 1 --
2019-09-25 23:00:00 21.2 4 Noroeste 8 Norte -- 958.3 1 --
2019-09-25 22:00:00 22.2 0 Calma 5 Oeste -- 958.1 1 --
2019-09-25 21:00:00 23.3 3 Oeste 8 Oeste -- 957.7 0.5 --
2019-09-25 20:00:00 24.9 7 Oeste 17 Oeste -- 957.3 0.1 --
2019-09-25 19:00:00 26.6 8 Oeste 19 Oeste -- 957.1 -0.6 --
2019-09-25 18:00:00 27 9 Noroeste 24 Oeste -- 957.2 -1 --
2019-09-25 17:00:00 27 11 Noroeste 21 Oeste -- 957.2 -1.5 --
2019-09-25 16:00:00 26.1 14 Oeste 25 Noroeste -- 957.7 -1.5 --
2019-09-25 15:00:00 25.2 9 Noroeste 21 Norte -- 958.2 -1.2 --
2019-09-25 14:00:00 23.9 9 Noroeste 26 Noroeste -- 958.7 -0.7 --
2019-09-25 13:00:00 22.9 12 Norte 24 Noroeste -- 959.2 0 --
2019-09-25 12:00:00 21.5 14 Norte 26 Nordeste -- 959.4 0.7 --
2019-09-25 11:00:00 19.8 18 Norte 26 Norte -- 959.4 1.5 --
2019-09-25 10:00:00 17.6 8 Norte 17 Nordeste -- 959.2 1.4 --
2019-09-25 09:00:00 15.1 3 Sudoeste 6 Sudoeste -- 958.7 1 --
2019-09-25 08:00:00 14.7 2 Oeste 5 Noroeste -- 957.9 0.1 --
2019-09-25 07:00:00 15.1 2 Sur 6 Sur -- 957.8 -0.1 --
2019-09-25 06:00:00 15.6 4 Nordeste 12 Noroeste -- 957.7 -0.4 --
2019-09-25 05:00:00 16.3 8 Noroeste 18 Noroeste -- 957.8 -0.2 --
2019-09-25 04:00:00 17.6 12 Oeste 19 Noroeste -- 957.9 -0.6 --
2019-09-25 03:00:00 18.4 10 Noroeste 23 Oeste -- 958.1 0 --
2019-09-25 02:00:00 19.2 16 Noroeste 23 Noroeste -- 958 0 --
2019-09-25 01:00:00 20.3 16 Noroeste 27 Oeste -- 958.5 0.5 --
2019-09-25 00:00:00 20.9 12 Noroeste 19 Oeste -- 958.1 0.5 --
2019-09-24 23:00:00 21.9 14 Oeste 29 Noroeste -- 958 0.8 --
2019-09-24 22:00:00 22.7 21 Oeste 41 Oeste -- 958 1.2 --
2019-09-24 21:00:00 23.7 27 Oeste 45 Noroeste -- 957.6 0.8 --
2019-09-24 20:00:00 25 29 Oeste 45 Oeste -- 957.2 0.1 --
2019-09-24 19:00:00 27 31 Oeste 50 Oeste -- 956.8 -1 --
2019-09-24 18:00:00 28.4 27 Oeste 48 Oeste -- 956.8 -1.7 --
2019-09-24 17:00:00 28.5 31 Oeste 46 Oeste -- 957.1 -2.5 --
2019-09-24 16:00:00 28.2 26 Oeste 44 Noroeste -- 957.8 -2.3 --
2019-09-24 15:00:00 27.7 22 Oeste 36 Oeste -- 958.5 -2.1 --
2019-09-24 14:00:00 26 20 Oeste 29 Noroeste -- 959.6 -1.3 --
2019-09-24 13:00:00 24.8 15 Oeste 27 Oeste -- 960.1 -0.1 --
2019-09-24 12:00:00 22.6 14 Oeste 26 Oeste -- 960.6 0.7 --
2019-09-24 11:00:00 20.3 15 Oeste 21 Oeste -- 960.9 1 --
2019-09-24 10:00:00 18.6 2 Oeste 5 Oeste -- 960.2 0.6 --
2019-09-24 09:00:00 15.2 0 Calma 5 Noroeste -- 959.9 0.6 --
2019-09-24 08:00:00 13.7 2 Sudoeste 7 Noroeste -- 959.9 0.4 --
2019-09-24 07:00:00 15.5 5 Noroeste 7 Noroeste -- 959.6 -0.3 --
2019-09-24 06:00:00 16 3 Noroeste 5 Oeste -- 959.3 -1 --
2019-09-24 05:00:00 16.3 3 Oeste 5 Oeste -- 959.5 -1 --
2019-09-24 04:00:00 17.1 3 Noroeste 4 Norte -- 959.9 -0.7 --
2019-09-24 03:00:00 17.4 0 Calma 7 Oeste -- 960.3 -0.6 --
2019-09-24 02:00:00 17.8 6 Oeste 8 Oeste -- 960.5 -0.4 --
2019-09-24 01:00:00 18.7 4 Noroeste 6 Oeste -- 960.6 -0.2 --
2019-09-24 00:00:00 19.2 3 Oeste 10 Noroeste -- 960.9 0.6 --
2019-09-23 23:00:00 20.3 4 Oeste 15 Oeste -- 960.9 1.1 --
2019-09-23 22:00:00 21.3 12 Oeste 17 Oeste -- 960.8 1.1 --
2019-09-23 21:00:00 22.3 10 Noroeste 14 Noroeste -- 960.3 0.5 --
2019-09-23 20:00:00 24.8 8 Oeste 17 Oeste -- 959.8 -0.1 --
2019-09-23 19:00:00 26.1 12 Oeste 21 Noroeste -- 959.7 -0.3 --
2019-09-23 18:00:00 26.5 13 Oeste 23 Oeste -- 959.8 -0.7 --
2019-09-23 17:00:00 26.3 12 Noroeste 20 Oeste -- 959.9 -1.1 --
2019-09-23 16:00:00 25.3 13 Noroeste 24 Noroeste -- 960 -1.1 --
2019-09-23 15:00:00 24.6 5 Noroeste 19 Oeste -- 960.5 -1 --
2019-09-23 14:00:00 23.6 8 Oeste 21 Oeste -- 961 -0.9 --
2019-09-23 13:00:00 22.1 5 Norte 17 Noroeste -- 961.1 0 --
2019-09-23 12:00:00 21.2 5 Sudoeste 17 Noroeste -- 961.5 0.7 --
2019-09-23 11:00:00 19 8 Oeste 14 Oeste -- 961.9 1.7 --
2019-09-23 10:00:00 17 4 Sur 7 Sur -- 961.1 1.3 --
2019-09-23 09:00:00 14.1 3 Noroeste 5 Noroeste -- 960.8 1.2 --
2019-09-23 08:00:00 13.7 4 Noroeste 6 Norte -- 960.2 1 --
2019-09-23 07:00:00 13.6 0 Calma 4 Noroeste -- 959.8 0.6 --
2019-09-23 06:00:00 14.1 3 Oeste 5 Noroeste -- 959.6 0.5 --
2019-09-23 05:00:00 14.7 4 Oeste 8 Oeste -- 959.2 -0.1 --
2019-09-23 04:00:00 14.8 6 Noroeste 8 Noroeste -- 959.2 0.2 --
2019-09-23 03:00:00 15.5 4 Oeste 8 Oeste -- 959.1 0.3 --
2019-09-23 02:00:00 15.8 4 Oeste 11 Oeste -- 959.3 0.6 --
2019-09-23 01:00:00 16.4 4 Oeste 12 Oeste -- 959 1.1 --
2019-09-23 00:00:00 17.3 9 Oeste 23 Noroeste -- 958.8 1.9 --
2019-09-22 23:00:00 18.3 15 Oeste 25 Oeste -- 958.7 2.3 --
2019-09-22 22:00:00 19 14 Oeste 25 Oeste -- 957.9 2 --
2019-09-22 21:00:00 19.7 15 Oeste 25 Noroeste -- 956.9 1.3 --
2019-09-22 20:00:00 20.9 18 Oeste 34 Oeste -- 956.4 1 --
2019-09-22 19:00:00 22.8 23 Oeste 43 Oeste -- 955.9 0.4 --
2019-09-22 18:00:00 23.8 27 Oeste 39 Oeste -- 955.6 0 --
2019-09-22 17:00:00 24 23 Oeste 41 Oeste -- 955.4 -0.2 --
2019-09-22 16:00:00 22.9 21 Oeste 41 Oeste -- 955.5 0 --
2019-09-22 15:00:00 21.9 23 Oeste 36 Oeste -- 955.6 0.2 --
2019-09-22 14:00:00 20.9 21 Oeste 31 Oeste -- 955.6 0.3 --
2019-09-22 13:00:00 20.9 14 Oeste 28 Oeste -- 955.5 0.7 --
2019-09-22 12:00:00 19.6 15 Oeste 23 Oeste -- 955.4 1.2 --
2019-09-22 11:00:00 29.3 15 Oeste -- -- -- 955.3 1.9 --
2019-09-22 10:00:00 17.5 -- -- -- -- -- 954.8 1.6 85
2019-09-22 09:00:00 17.3 -- -- -- -- -- 954.2 1.3 85
2019-09-22 08:00:00 17 -- -- -- -- -- 953.4 0.7 85
2019-09-22 07:00:00 17.8 -- -- -- -- -- 953.2 0.3 85
2019-09-22 06:00:00 18.1 -- -- -- -- -- 952.9 -0.1 85
2019-09-22 05:00:00 19.5 -- -- -- -- -- 952.7 -0.5 85
2019-09-22 04:00:00 19.7 -- -- -- -- -- 952.9 -0.3 85
2019-09-22 03:00:00 19.6 -- -- -- -- -- 953 -0.7 85
2019-09-22 02:00:00 19.8 -- -- -- -- -- 953.2 -0.6 85
2019-09-22 01:00:00 19.8 -- -- -- -- -- 953.2 -0.7 85
2019-09-22 00:00:00 18.4 -- -- -- -- -- 953.7 0.5 85
2019-09-21 23:00:00 18.1 -- -- -- -- -- 953.8 0.7 85
2019-09-21 22:00:00 18.5 -- -- -- -- -- 953.9 1.1 85
2019-09-21 21:00:00 18.8 -- -- -- -- -- 953.2 0.4 85
2019-09-21 20:00:00 21.1 -- -- -- -- -- 953.1 0.2 85
2019-09-21 19:00:00 21.8 -- -- -- -- -- 952.8 -0.5 85
2019-09-21 18:00:00 22.3 -- -- -- -- -- 952.8 -0.7 85
2019-09-21 17:00:00 22.7 -- -- -- -- -- 952.9 -1.1 85
2019-09-21 16:00:00 21.2 -- -- -- -- -- 953.3 -0.7 85
2019-09-21 15:00:00 22.2 -- -- -- -- -- 953.5 -1 85
2019-09-21 14:00:00 -- -- -- -- -- -- 954 -0.6 71
2019-09-21 13:00:00 23.4 8 Oeste 26 Sudoeste 0 954 -0.4 53
2019-09-21 12:00:00 24.7 14 Sudoeste 25 Sudoeste 0 954.5 0.3 51
2019-09-21 11:00:00 22.2 9 Sudoeste 21 Sur 0 954.6 0.4 61
2019-09-21 10:00:00 20.1 4 Oeste 11 Este 0 954.4 0.2 68
2019-09-21 09:00:00 17.6 7 Este 10 Este 0 954.2 0.1 76
2019-09-21 08:00:00 16.8 5 Este 8 Este 0 954.2 0.1 76
2019-09-21 07:00:00 16.7 4 Este 9 Este 0 954.2 -0.4 78
2019-09-21 06:00:00 17 4 Este 8 Este 0 954.1 -0.6 76
2019-09-21 05:00:00 17.6 5 Sudoeste 7 Oeste 0 954.1 -0.3 73
2019-09-21 04:00:00 18.2 4 Sudoeste 12 Noroeste 0 954.6 0.2 72
2019-09-21 03:00:00 19.7 4 Oeste 9 Noroeste 0 954.7 0.6 67
2019-09-21 02:00:00 20.2 6 Norte 6 Norte 0 954.4 0.3 65
2019-09-21 01:00:00 20.6 0 Calma 13 Norte 0 954.4 0.6 62
2019-09-21 00:00:00 21.6 8 Noroeste 21 Oeste 0 954.1 0.2 60
2019-09-20 23:00:00 21.8 9 Sudeste 24 Sudeste 0 954.1 1.1 63
2019-09-20 22:00:00 21.8 8 Sudeste 28 Este 0 953.8 0.8 61
2019-09-20 21:00:00 22.2 18 Sudeste 34 Sudeste 0 953.9 0.6 60
2019-09-20 20:00:00 26.1 5 Este 23 Sudoeste 0 953 -0.3 49
2019-09-20 19:00:00 28.1 12 Sudoeste 25 Sudeste 0 953 -1.1 34
2019-09-20 18:00:00 26.3 16 Sudeste 31 Este 0 953.3 -1.4 50
2019-09-20 17:00:00 27.1 16 Sudeste 31 Sudeste 0 953.3 -2 42
2019-09-20 16:00:00 27.1 16 Sudeste 33 Sudeste 0 954.1 -1.8 46
2019-09-20 15:00:00 27.2 18 Sudeste 30 Sudeste 0 954.7 -1.7 46
2019-09-20 14:00:00 26.4 14 Este 26 Este 0 955.3 -1.2 49
2019-09-20 13:00:00 25 14 Sudeste 23 Sudeste 0 955.9 -0.7 55
2019-09-20 12:00:00 23.3 15 Sudeste 23 Sudeste 0 956.4 0.3 60
2019-09-20 11:00:00 23.2 14 Sudeste 23 Sudeste 0 956.5 0.7 63
2019-09-20 10:00:00 20.2 14 Sudeste 25 Sudeste 0 956.6 1.2 76
2019-09-20 09:00:00 19.5 17 Sudeste 27 Este 0 956.1 0.8 78
2019-09-20 08:00:00 19.2 15 Este 21 Sudeste 0 955.8 0.6 78
2019-09-20 07:00:00 18.8 9 Este 18 Este 0 955.4 0 77
2019-09-20 06:00:00 18.8 9 Este 18 Este 0 955.3 -0.4 79
2019-09-20 05:00:00 19.2 14 Este 25 Este 0 955.2 -0.7 80
2019-09-20 04:00:00 20 13 Este 18 Este 0 955.4 -0.3 74
2019-09-20 03:00:00 21.3 9 Este 25 Este 0 955.7 -0.1 66
2019-09-20 02:00:00 22.2 14 Este 27 Este 0 955.9 0 62
2019-09-20 01:00:00 22.9 14 Este 22 Sudeste 0 955.7 0.2 52
2019-09-20 00:00:00 23 10 Este 17 Este 0 955.8 0.8 51
2019-09-19 23:00:00 24.3 5 Este 15 Este 0 955.9 1.4 46
2019-09-19 22:00:00 25.3 9 Sudeste 16 Sudeste 0 955.5 1 45
2019-09-19 21:00:00 25.7 9 Este 14 Este 0 955 0.4 44
2019-09-19 20:00:00 28 8 Este 16 Sudeste 0 954.5 -0.4 39
2019-09-19 19:00:00 29.5 10 Sudeste 23 Sudeste 0 954.5 -0.8 34
2019-09-19 18:00:00 29.7 15 Sudeste 25 Sur 0 954.6 -1.3 37
2019-09-19 17:00:00 29.8 12 Este 36 Este 0 954.9 -1.6 36
2019-09-19 16:00:00 29.3 23 Sudeste 40 Este 0 955.3 -1.7 37
2019-09-19 15:00:00 29.9 11 Norte 18 Norte 0 955.9 -1.6 38
2019-09-19 14:00:00 28 6 Sudeste 17 Norte 0 956.5 -1.1 43
2019-09-19 13:00:00 27.7 6 Este 15 Este 0 957 -0.4 48
2019-09-19 12:00:00 25.3 6 Este 17 Sudeste 0 957.5 0.4 53
2019-09-19 11:00:00 22.4 12 Sudeste 17 Sudeste 0 957.6 0.8 64
2019-09-19 10:00:00 20.1 10 Sudeste 17 Este 0 957.4 0.9 70
2019-09-19 09:00:00 17.5 5 Sudeste 9 Sudeste 0 957.1 0.6 81
2019-09-19 08:00:00 16.8 4 Este 14 Sudeste 0 956.8 0.2 83
2019-09-19 07:00:00 16.9 10 Este 15 Sudeste 0 956.5 -0.1 82
2019-09-19 06:00:00 17.3 4 Sudeste 9 Sudeste 0 956.5 -0.4 80
2019-09-19 05:00:00 18.2 3 Sudeste 6 Este 0 956.6 -0.3 74
2019-09-19 04:00:00 18.9 2 Sudeste 4 Sudeste 0 956.6 -0.4 71
2019-09-19 03:00:00 19.8 5 Noroeste 6 Noroeste 0 956.9 -0.1 67
2019-09-19 02:00:00 20.6 4 Oeste 5 Sudoeste 0 956.9 0.1 64
2019-09-19 01:00:00 21.6 4 Sudoeste 13 Norte 0 957 0.4 57
2019-09-19 00:00:00 23 4 Sudoeste 8 Sudoeste 0 957 0.9 51
2019-09-18 23:00:00 23.8 3 Sudoeste 7 Este 0 956.8 1.2 48
2019-09-18 22:00:00 25 2 Este 7 Este 0 956.6 1.3 44
2019-09-18 21:00:00 25.8 4 Nordeste 8 Oeste 0 956.1 0.7 40
2019-09-18 20:00:00 28.1 7 Oeste 10 Oeste 0 955.6 0 34
2019-09-18 19:00:00 29.8 9 Oeste 16 Oeste 0 955.3 -0.9 29
2019-09-18 18:00:00 30 9 Norte 15 Norte 0 955.4 -1.3 31
2019-09-18 17:00:00 30.2 7 Noroeste 18 Oeste 0 955.6 -1.6 31
2019-09-18 16:00:00 29.6 8 Oeste 20 Oeste 0 956.2 -1.3 34
2019-09-18 15:00:00 29 6 Este 18 Sur 0 956.7 -1.1 37
2019-09-18 14:00:00 27.7 8 Sudeste 18 Sur 0 957.2 -0.6 39
2019-09-18 13:00:00 26.2 8 Sudeste 16 Este 0 957.5 -0.1 45
2019-09-18 12:00:00 24 6 Sudeste 14 Sudeste 0 957.8 0.5 48
2019-09-18 11:00:00 21.4 5 Sudeste 9 Sudeste 0 957.8 0.9 57
2019-09-18 10:00:00 18.4 6 Sudeste 9 Sudeste 0 957.6 1 73
2019-09-18 09:00:00 15.2 2 Este 8 Este 0 957.3 0.9 88
2019-09-18 08:00:00 14.3 5 Nordeste 8 Este 0 956.9 0.8 89
2019-09-18 07:00:00 14.9 4 Sudeste 8 Norte 0 956.6 0.3 85
2019-09-18 06:00:00 15.3 3 Sudeste 7 Sur 0 956.4 -0.1 84
2019-09-18 05:00:00 16.5 5 Este 9 Nordeste 0 956.1 -0.8 76
2019-09-18 04:00:00 17.2 4 Norte 8 Sudeste 0 956.3 -1.6 71
2019-09-18 03:00:00 17.4 6 Sur 11 Sudeste 0 956.5 -2.3 71
2019-09-18 02:00:00 17.3 9 Este 11 Sudeste 0 956.9 -0.6 74
2019-09-18 01:00:00 17.6 3 Oeste 22 Oeste 0 957.9 1.4 73
2019-09-18 00:00:00 18.2 19 Oeste 31 Oeste 0 958.8 2.8 71
2019-09-17 23:00:00 18.2 6 Sudoeste 13 Noroeste 0 957.5 1.4 72
2019-09-17 22:00:00 18.9 7 Noroeste 19 Oeste 0 956.5 0.7 66
2019-09-17 21:00:00 19.9 8 Oeste 34 Oeste 0 956 0.9 62